Map

Track Data

SID SEASON NUMBER BASIN SUBBASIN NAME ISO_TIME NATURE LAT LON WMO_WIND WMO_PRES WMO_AGENCY TRACK_TYPE DIST2LAND LANDFALL IFLAG USA_AGENCY USA_ATCF_ID USA_LAT USA_LON USA_RECORD USA_STATUS USA_WIND USA_PRES USA_SSHS USA_R34_NE USA_R34_SE USA_R34_SW USA_R34_NW USA_R50_NE USA_R50_SE USA_R50_SW USA_R50_NW USA_R64_NE USA_R64_SE USA_R64_SW USA_R64_NW USA_POCI USA_ROCI USA_RMW USA_EYE TOKYO_LAT TOKYO_LON TOKYO_GRADE TOKYO_WIND TOKYO_PRES TOKYO_R50_DIR TOKYO_R50_LONG TOKYO_R50_SHORT TOKYO_R30_DIR TOKYO_R30_LONG TOKYO_R30_SHORT TOKYO_LAND CMA_LAT CMA_LON CMA_CAT CMA_WIND CMA_PRES HKO_LAT HKO_LON HKO_CAT HKO_WIND HKO_PRES NEWDELHI_LAT NEWDELHI_LON NEWDELHI_GRADE NEWDELHI_WIND NEWDELHI_PRES NEWDELHI_CI NEWDELHI_DP NEWDELHI_POCI REUNION_LAT REUNION_LON REUNION_TYPE REUNION_WIND REUNION_PRES REUNION_TNUM REUNION_CI REUNION_RMW REUNION_R34_NE REUNION_R34_SE REUNION_R34_SW REUNION_R34_NW REUNION_R50_NE REUNION_R50_SE REUNION_R50_SW REUNION_R50_NW REUNION_R64_NE REUNION_R64_SE REUNION_R64_SW REUNION_R64_NW BOM_LAT BOM_LON BOM_TYPE BOM_WIND BOM_PRES BOM_TNUM BOM_CI BOM_RMW BOM_R34_NE BOM_R34_SE BOM_R34_SW BOM_R34_NW BOM_R50_NE BOM_R50_SE BOM_R50_SW BOM_R50_NW BOM_R64_NE BOM_R64_SE BOM_R64_SW BOM_R64_NW BOM_ROCI BOM_POCI BOM_EYE BOM_POS_METHOD BOM_PRES_METHOD NADI_LAT NADI_LON NADI_CAT NADI_WIND NADI_PRES WELLINGTON_LAT WELLINGTON_LON WELLINGTON_WIND WELLINGTON_PRES DS824_LAT DS824_LON DS824_STAGE DS824_WIND DS824_PRES TD9636_LAT TD9636_LON TD9636_STAGE TD9636_WIND TD9636_PRES TD9635_LAT TD9635_LON TD9635_WIND TD9635_PRES TD9635_ROCI NEUMANN_LAT NEUMANN_LON NEUMANN_CLASS NEUMANN_WIND NEUMANN_PRES MLC_LAT MLC_LON MLC_CLASS MLC_WIND MLC_PRES USA_GUST BOM_GUST BOM_GUST_PER REUNION_GUST REUNION_GUST_PER USA_SEAHGT USA_SEARAD_NE USA_SEARAD_SE USA_SEARAD_SW USA_SEARAD_NW STORM_SPEED STORM_DIR
1918102S12061 1918 33 SI MM NOT_NAMED 1918-04-11 18:00:00 NR -12.1000 61.0000 main 962 920 __________O___ -1 -12.1000 61.0000 4 9 177
1918102S12061 1918 33 SI MM NOT_NAMED 1918-04-11 21:00:00 NR -12.5642 61.0047 main 910 868 __________P___ -1 -12.5642 61.0047 4 10 179
1918102S12061 1918 33 SI MM NOT_NAMED 1918-04-12 00:00:00 NR -13.0527 61.0176 main 858 807 __________P___ -1 -13.0527 61.0176 4 10 178
1918102S12061 1918 33 SI MM NOT_NAMED 1918-04-12 03:00:00 NR -13.5898 61.0466 main 807 752 __________P___ -1 -13.5898 61.0466 4 12 176
1918102S12061 1918 33 SI MM NOT_NAMED 1918-04-12 06:00:00 NR -14.2000 61.1000 main 752 690 __________O___ -1 -14.2000 61.1000 4 13 174
1918102S12061 1918 33 SI MM NOT_NAMED 1918-04-12 09:00:00 NR -14.8958 61.1858 main 690 631 __________P___ -1 -14.8958 61.1858 4 15 172
1918102S12061 1918 33 SI MM NOT_NAMED 1918-04-12 12:00:00 NR -15.6423 61.3104 main 631 576 __________P___ -1 -15.6423 61.3104 4 15 169
1918102S12061 1918 33 SI MM NOT_NAMED 1918-04-12 15:00:00 NR -16.3926 61.4798 main 576 538 __________P___ -1 -16.3926 61.4798 4 15 166
1918102S12061 1918 33 SI MM NOT_NAMED 1918-04-12 18:00:00 NR -17.1000 61.7000 main 538 516 __________O___ -1 -17.1000 61.7000 4 14 163
1918102S12061 1918 33 SI MM NOT_NAMED 1918-04-12 21:00:00 NR -17.7278 61.9146 main 516 508 __________P___ -1 -17.7278 61.9146 4 13 159
1918102S12061 1918 33 SI MM NOT_NAMED 1918-04-13 00:00:00 NR -18.3034 62.1864 main 513 508 __________P___ -1 -18.3034 62.1864 4 13 152
1918102S12061 1918 33 SI MM NOT_NAMED 1918-04-13 03:00:00 NR -18.8274 62.5399 main 520 520 __________P___ -1 -18.8274 62.5399 4 13 142
1918102S12061 1918 33 SI MM NOT_NAMED 1918-04-13 06:00:00 NR -19.3000 63.0000 main 555 555 __________O___ -1 -19.3000 63.0000 4 13 134
1918102S12061 1918 33 SI MM NOT_NAMED 1918-04-13 09:00:00 NR -19.7538 63.5676 main 608 608 __________P___ -1 -19.7538 63.5676 4 15 126
1918102S12061 1918 33 SI MM NOT_NAMED 1918-04-13 12:00:00 NR -20.1548 64.2423 main 667 667 __________P___ -1 -20.1548 64.2423 4 15 119
1918102S12061 1918 33 SI MM NOT_NAMED 1918-04-13 15:00:00 NR -20.5034 64.9959 main 750 750 __________P___ -1 -20.5034 64.9959 4 16 114
1918102S12061 1918 33 SI MM NOT_NAMED 1918-04-13 18:00:00 NR -20.8000 65.8000 main 834 834 __________O___ -1 -20.8000 65.8000 4 16 110
1918102S12061 1918 33 SI MM NOT_NAMED 1918-04-13 21:00:00 NR -21.0475 66.6299 main 918 918 __________P___ -1 -21.0475 66.6299 4 16 106
1918102S12061 1918 33 SI MM NOT_NAMED 1918-04-14 00:00:00 NR -21.2556 67.4766 main 1014 1014 __________P___ -1 -21.2556 67.4766 4 16 104
1918102S12061 1918 33 SI MM NOT_NAMED 1918-04-14 03:00:00 NR -21.4359 68.3350 main 1097 1097 __________P___ -1 -21.4359 68.3350 4 16 102
1918102S12061 1918 33 SI MM NOT_NAMED 1918-04-14 06:00:00 NR -21.6000 69.2000 main 1192 __________O___ -1 -21.6000 69.2000 4 16 102

About IBTrACS Database

This database is a web-friendly format of International Best Track Archive for Climate Stewardship (IBTrACS), a global best track data archive curated by NOAA dating back to 1842.

Updated: 2021-12-01